Time;durP1;ratioP1;P1;durP2;ratioP2;P2;SDS_P1;SDS_P2;PMS_P1;PMS_P2;Temp;Humidity;BMP_temperature;BMP_pressure;BME280_temperature;BME280_humidity;BME280_pressure;Samples;Min_cycle;Max_cycle;Signal;HPM_P1;HPM_P2
2023/03/06 00:00:24;;;;;;;;;11.00;10.00;23.80;33.90;;;;;;109670;1255;54289;-66
2023/03/06 00:03:10;;;;;;;;;13.00;9.00;23.80;33.90;;;;;;109627;1255;52039;-65
2023/03/06 00:05:37;;;;;;;;;17.00;14.00;23.80;34.00;;;;;;109586;1260;49206;-66
2023/03/06 00:08:03;;;;;;;;;13.50;11.50;23.80;34.00;;;;;;109593;1255;45752;-66
2023/03/06 00:10:31;;;;;;;;;14.33;12.00;23.80;33.80;;;;;;109582;1255;55883;-66
2023/03/06 00:12:59;;;;;;;;;14.00;12.00;23.70;34.00;;;;;;109634;1260;54525;-66
2023/03/06 00:15:26;;;;;;;;;16.50;15.00;23.70;33.90;;;;;;109532;1258;49279;-65
2023/03/06 00:17:53;;;;;;;;;15.50;14.00;23.70;33.90;;;;;;109739;1259;49767;-65
2023/03/06 00:20:21;;;;;;;;;16.00;12.00;23.60;34.00;;;;;;109586;1256;45309;-66
2023/03/06 00:22:48;;;;;;;;;14.00;13.00;23.60;33.80;;;;;;109632;1258;56308;-65
2023/03/06 00:25:17;;;;;;;;;14.00;12.50;23.60;33.90;;;;;;109584;1260;54099;-66
2023/03/06 00:27:44;;;;;;;;;13.00;11.33;23.60;33.80;;;;;;109572;1255;50057;-66
2023/03/06 00:30:13;;;;;;;;;13.00;12.00;23.60;33.80;;;;;;109581;1260;49021;-70
2023/03/06 00:32:39;;;;;;;;;12.33;11.00;23.50;33.80;;;;;;109671;1257;45760;-71
2023/03/06 00:35:06;;;;;;;;;15.00;12.00;23.50;33.80;;;;;;109633;1258;55459;-67
2023/03/06 00:37:33;;;;;;;;;12.00;11.00;23.50;33.70;;;;;;109666;1255;54339;-65
2023/03/06 00:39:59;;;;;;;;;18.50;12.50;23.50;33.80;;;;;;109616;1255;50169;-68
2023/03/06 00:42:25;;;;;;;;;15.00;12.00;23.50;33.80;;;;;;109619;1257;49889;-65
2023/03/06 00:44:51;;;;;;;;;13.00;12.00;23.40;33.80;;;;;;109670;1259;45956;-66
2023/03/06 00:47:17;;;;;;;;;;;23.40;33.80;;;;;;109660;1259;56673;-66
2023/03/06 00:49:44;;;;;;;;;14.00;13.00;23.40;33.80;;;;;;109669;1255;54106;-67
2023/03/06 00:52:11;;;;;;;;;13.00;11.00;23.30;34.00;;;;;;109640;1260;49826;-66
2023/03/06 00:54:38;;;;;;;;;12.00;10.00;23.30;33.80;;;;;;109739;1260;49597;-65
2023/03/06 00:57:05;;;;;;;;;11.00;10.00;23.30;33.80;;;;;;109622;1257;46087;-66
2023/03/06 00:59:31;;;;;;;;;15.00;12.00;23.30;34.00;;;;;;109598;1257;55197;-67
2023/03/06 01:01:58;;;;;;;;;11.50;10.50;23.30;34.00;;;;;;109624;1260;54541;-66
2023/03/06 01:04:24;;;;;;;;;15.00;13.00;23.20;33.90;;;;;;109613;1255;48921;-66
2023/03/06 01:06:50;;;;;;;;;12.50;10.00;23.20;34.20;;;;;;109608;1259;49955;-66
2023/03/06 01:09:17;;;;;;;;;11.00;9.50;23.20;34.20;;;;;;109608;1259;46265;-67
2023/03/06 01:11:43;;;;;;;;;;;23.20;34.00;;;;;;109703;1255;55982;-66
2023/03/06 01:14:09;;;;;;;;;17.00;13.00;23.10;34.50;;;;;;109639;1260;54194;-66
2023/03/06 01:16:35;;;;;;;;;15.00;12.00;23.10;33.90;;;;;;109545;1260;48442;-66
2023/03/06 01:19:02;;;;;;;;;13.00;11.00;23.10;33.90;;;;;;109558;1257;48962;-67
2023/03/06 01:21:28;;;;;;;;;11.50;9.50;23.10;33.90;;;;;;109751;1259;46072;-67
2023/03/06 01:23:54;;;;;;;;;13.00;12.00;23.10;34.10;;;;;;109589;1258;55631;-66
2023/03/06 01:26:21;;;;;;;;;13.00;10.00;23.10;34.00;;;;;;109616;1260;54572;-67
2023/03/06 01:28:47;;;;;;;;;15.00;12.00;23.10;34.00;;;;;;109598;1255;49699;-66
2023/03/06 01:31:13;;;;;;;;;14.00;11.50;23.20;34.00;;;;;;109821;1255;49509;-66
2023/03/06 01:33:39;;;;;;;;;13.00;12.00;23.20;34.30;;;;;;109585;1260;45371;-66
2023/03/06 01:36:08;;;;;;;;;18.67;13.00;23.30;34.40;;;;;;109601;1260;56749;-67
2023/03/06 01:38:35;;;;;;;;;12.00;10.50;23.40;34.30;;;;;;109679;1255;53563;-67
2023/03/06 01:41:02;;;;;;;;;12.00;10.00;23.50;34.40;;;;;;109658;1255;49909;-67
2023/03/06 01:43:32;;;;;;;;;11.00;9.00;23.60;34.40;;;;;;109661;1255;49469;-69
2023/03/06 01:46:43;;;;;;;;;11.00;10.00;23.70;34.00;;;;;;109668;1260;46137;-65
2023/03/06 01:49:19;;;;;;;;;11.00;10.00;23.80;35.00;;;;;;109574;1256;55978;-66
2023/03/06 01:51:50;;;;;;;;;11.00;10.00;24.00;34.70;;;;;;109640;1255;54198;-67
2023/03/06 01:54:21;;;;;;;;;11.00;10.00;24.10;34.70;;;;;;109596;1255;49794;-68
2023/03/06 01:56:51;;;;;;;;;12.00;10.00;24.20;34.60;;;;;;109654;1255;48829;-67
2023/03/06 01:59:19;;;;;;;;;9.75;8.75;24.30;34.80;;;;;;109415;1257;45351;-66
2023/03/06 02:01:47;;;;;;;;;13.67;11.00;24.50;34.70;;;;;;109566;1261;56933;-67
2023/03/06 02:04:13;;;;;;;;;10.00;9.00;24.60;34.80;;;;;;109544;1262;54407;-67
2023/03/06 02:06:42;;;;;;;;;12.00;11.00;24.70;34.80;;;;;;109539;1261;50373;-67
2023/03/06 02:09:10;;;;;;;;;12.00;11.00;24.80;34.80;;;;;;109654;1260;48723;-67
2023/03/06 02:11:36;;;;;;;;;11.00;10.00;24.90;34.60;;;;;;109665;1259;45894;-65
2023/03/06 02:14:02;;;;;;;;;12.00;10.00;25.00;35.10;;;;;;109590;1260;55213;-65
2023/03/06 02:16:30;;;;;;;;;11.67;10.67;25.00;34.70;;;;;;109562;1257;54250;-65
2023/03/06 02:18:59;;;;;;;;;13.00;10.00;25.10;34.60;;;;;;109663;1260;50115;-66
2023/03/06 02:21:29;;;;;;;;;12.00;11.00;25.20;34.10;;;;;;109604;1261;49269;-66
2023/03/06 02:24:05;;;;;;;;;11.00;10.00;25.20;34.60;;;;;;109577;1259;46115;-66
2023/03/06 02:26:33;;;;;;;;;14.00;11.00;25.30;34.40;;;;;;109588;1260;55886;-67
2023/03/06 02:28:59;;;;;;;;;12.50;11.00;25.40;34.60;;;;;;109535;1257;53460;-66
2023/03/06 02:31:28;;;;;;;;;11.00;9.00;25.50;34.30;;;;;;109581;1259;49438;-66
2023/03/06 02:34:06;;;;;;;;;16.50;9.50;25.50;34.50;;;;;;109645;1259;49724;-65
2023/03/06 02:36:42;;;;;;;;;9.00;8.00;25.50;34.10;;;;;;109617;1255;45416;-65
2023/03/06 02:39:10;;;;;;;;;9.33;8.33;25.50;34.20;;;;;;109646;1259;55375;-65
2023/03/06 02:41:36;;;;;;;;;10.33;9.00;25.60;34.00;;;;;;109741;1257;54529;-67
2023/03/06 02:44:02;;;;;;;;;16.00;10.00;25.70;34.00;;;;;;109786;1260;50102;-67
2023/03/06 02:46:29;;;;;;;;;11.50;10.00;25.60;33.80;;;;;;109712;1256;49359;-67
2023/03/06 02:48:55;;;;;;;;;15.00;10.50;25.70;33.80;;;;;;109630;1255;46285;-66
2023/03/06 02:51:21;;;;;;;;;10.50;10.00;25.70;33.70;;;;;;109704;1260;55337;-65
2023/03/06 02:53:48;;;;;;;;;13.00;10.50;25.70;33.90;;;;;;109705;1260;54408;-66
2023/03/06 02:56:14;;;;;;;;;12.00;10.00;25.70;33.50;;;;;;109616;1260;50684;-65
2023/03/06 02:58:41;;;;;;;;;12.00;11.00;25.70;33.40;;;;;;109916;1259;50099;-65
2023/03/06 03:01:07;;;;;;;;;13.00;11.00;25.70;33.40;;;;;;109685;1260;45463;-66
2023/03/06 03:03:33;;;;;;;;;11.33;10.33;25.70;33.30;;;;;;109612;1255;56066;-66
2023/03/06 03:06:00;;;;;;;;;10.00;8.00;25.70;33.20;;;;;;109638;1257;54461;-67
2023/03/06 03:08:27;;;;;;;;;11.50;11.00;25.70;33.10;;;;;;109569;1257;49983;-66
2023/03/06 03:10:54;;;;;;;;;11.00;10.00;25.60;33.20;;;;;;109769;1259;49477;-66
2023/03/06 03:13:21;;;;;;;;;11.00;9.50;25.60;33.20;;;;;;109669;1255;45557;-65
2023/03/06 03:16:00;;;;;;;;;11.50;10.50;25.60;32.90;;;;;;109722;1260;56359;-67
2023/03/06 03:18:26;;;;;;;;;9.50;8.50;25.60;32.90;;;;;;109853;1257;54802;-66
2023/03/06 03:20:52;;;;;;;;;11.00;9.00;25.60;32.80;;;;;;109654;1259;49355;-66
2023/03/06 03:23:19;;;;;;;;;15.00;10.00;25.50;32.70;;;;;;109679;1260;49377;-66
2023/03/06 03:25:45;;;;;;;;;13.00;11.00;25.50;32.90;;;;;;109768;1257;46488;-66
2023/03/06 03:28:12;;;;;;;;;10.00;9.00;25.50;32.60;;;;;;109627;1255;55007;-66
2023/03/06 03:30:39;;;;;;;;;11.00;10.50;25.50;32.60;;;;;;109665;1259;53362;-65
2023/03/06 03:33:06;;;;;;;;;12.00;10.00;25.40;32.80;;;;;;109653;1260;49205;-64
2023/03/06 03:35:32;;;;;;;;;9.00;8.00;25.40;32.50;;;;;;109537;1261;49831;-65
2023/03/06 03:37:59;;;;;;;;;13.50;12.00;25.40;32.50;;;;;;109625;1255;45669;-65
2023/03/06 03:40:26;;;;;;;;;11.00;10.00;25.30;32.50;;;;;;109683;1259;56447;-64
2023/03/06 03:42:52;;;;;;;;;13.00;10.00;25.30;32.50;;;;;;109673;1255;53396;-65
2023/03/06 03:45:19;;;;;;;;;10.50;9.00;25.20;32.50;;;;;;109825;1261;49973;-66
2023/03/06 03:47:45;;;;;;;;;14.00;10.50;25.20;32.60;;;;;;109646;1256;49568;-66
2023/03/06 03:50:11;;;;;;;;;13.00;11.00;25.20;32.60;;;;;;109575;1260;46041;-66
2023/03/06 03:52:38;;;;;;;;;10.00;8.00;25.10;32.80;;;;;;109655;1260;56554;-66
2023/03/06 03:55:05;;;;;;;;;13.00;10.50;25.10;32.70;;;;;;109593;1257;53577;-66
2023/03/06 03:57:33;;;;;;;;;12.00;9.50;25.10;32.70;;;;;;109571;1261;49663;-65
2023/03/06 03:59:59;;;;;;;;;13.00;10.00;25.00;32.60;;;;;;109617;1255;49017;-66
2023/03/06 04:02:26;;;;;;;;;15.00;10.50;25.00;32.60;;;;;;109649;1256;46355;-69
2023/03/06 04:04:52;;;;;;;;;11.00;10.00;24.90;32.60;;;;;;109727;1255;56694;-68
2023/03/06 04:07:18;;;;;;;;;10.00;9.00;24.90;32.50;;;;;;109619;1255;53823;-66
2023/03/06 04:09:44;;;;;;;;;13.50;12.50;24.90;32.60;;;;;;109687;1260;49525;-68
2023/03/06 04:12:10;;;;;;;;;10.00;9.00;24.90;32.60;;;;;;109723;1255;48925;-65
2023/03/06 04:14:37;;;;;;;;;11.00;9.50;24.80;32.50;;;;;;109753;1259;45464;-65
2023/03/06 04:17:03;;;;;;;;;11.67;9.33;24.80;32.50;;;;;;109700;1257;55801;-65
2023/03/06 04:19:29;;;;;;;;;13.00;9.00;24.80;32.50;;;;;;109776;1260;53335;-65
2023/03/06 04:21:55;;;;;;;;;14.50;10.00;24.70;32.40;;;;;;109681;1257;49461;-67
2023/03/06 04:24:22;;;;;;;;;13.00;12.00;24.70;32.50;;;;;;109613;1257;49543;-65
2023/03/06 04:26:48;;;;;;;;;11.67;9.33;24.60;32.30;;;;;;109633;1259;46159;-65
2023/03/06 04:29:14;;;;;;;;;;;24.60;32.40;;;;;;109618;1259;55972;-67
2023/03/06 04:31:40;;;;;;;;;12.00;10.00;24.60;32.80;;;;;;109702;1255;54844;-66
2023/03/06 04:34:06;;;;;;;;;14.00;10.00;24.60;32.60;;;;;;109711;1255;48892;-66
2023/03/06 04:36:33;;;;;;;;;16.00;12.00;24.60;33.00;;;;;;109646;1255;49390;-67
2023/03/06 04:39:00;;;;;;;;;;;24.50;32.40;;;;;;109611;1256;45764;-67
2023/03/06 04:41:26;;;;;;;;;16.00;12.00;24.40;32.30;;;;;;109626;1259;55985;-65
2023/03/06 04:43:52;;;;;;;;;11.00;9.00;24.40;32.30;;;;;;109851;1260;54302;-66
2023/03/06 04:46:19;;;;;;;;;16.50;11.00;24.40;32.30;;;;;;109681;1260;49911;-65
2023/03/06 04:48:45;;;;;;;;;12.67;11.67;24.40;32.30;;;;;;109656;1256;49574;-66
2023/03/06 04:51:12;;;;;;;;;11.50;10.50;24.40;32.50;;;;;;109747;1255;46865;-65
2023/03/06 04:53:39;;;;;;;;;13.00;10.00;24.30;32.50;;;;;;109708;1255;55500;-65
2023/03/06 04:56:06;;;;;;;;;15.50;11.50;24.20;32.50;;;;;;109584;1260;54412;-65
2023/03/06 04:58:32;;;;;;;;;15.50;13.00;24.20;32.60;;;;;;109673;1255;49870;-67
2023/03/06 05:00:58;;;;;;;;;13.00;11.00;24.10;32.90;;;;;;109685;1260;49103;-65
2023/03/06 05:03:25;;;;;;;;;17.00;12.00;24.00;33.00;;;;;;109848;1260;46875;-71
2023/03/06 05:05:51;;;;;;;;;19.67;18.67;24.10;33.20;;;;;;109554;1260;56551;-65
2023/03/06 05:08:17;;;;;;;;;20.00;18.00;24.10;29.80;;;;;;109680;1255;54547;-69
2023/03/06 05:10:44;;;;;;;;;24.00;22.00;24.00;26.60;;;;;;109593;1255;49594;-72
2023/03/06 05:13:11;;;;;;;;;27.00;24.00;24.00;26.10;;;;;;109662;1255;49414;-71
2023/03/06 05:15:40;;;;;;;;;20.00;17.00;23.80;25.60;;;;;;109615;1255;46102;-72
2023/03/06 05:18:07;;;;;;;;;22.67;20.33;23.60;25.30;;;;;;109694;1255;55949;-72
2023/03/06 05:20:33;;;;;;;;;20.00;19.00;23.30;25.60;;;;;;109582;1259;54189;-72
2023/03/06 05:22:59;;;;;;;;;25.00;22.00;23.00;25.30;;;;;;109607;1255;49986;-75
2023/03/06 05:25:25;;;;;;;;;26.00;23.50;22.80;24.80;;;;;;109593;1256;49751;-69
2023/03/06 05:27:52;;;;;;;;;37.00;30.00;22.60;24.80;;;;;;109622;1261;45201;-74
2023/03/06 05:30:20;;;;;;;;;32.00;29.50;22.40;24.70;;;;;;109637;1255;55879;-75
2023/03/06 05:32:46;;;;;;;;;37.00;32.00;22.10;24.70;;;;;;109568;1255;54111;-75
2023/03/06 05:35:17;;;;;;;;;32.00;27.00;21.80;24.70;;;;;;109615;1259;50619;-69
2023/03/06 05:37:44;;;;;;;;;30.00;28.00;21.70;25.10;;;;;;109705;1255;49210;-70
2023/03/06 05:40:11;;;;;;;;;29.00;26.00;21.50;25.70;;;;;;109829;1255;46892;-69
2023/03/06 05:42:37;;;;;;;;;25.00;23.00;21.40;26.20;;;;;;109729;1255;56284;-68
2023/03/06 05:45:04;;;;;;;;;25.00;23.00;21.30;26.30;;;;;;109746;1260;55196;-69
2023/03/06 05:47:31;;;;;;;;;27.67;25.00;21.40;26.60;;;;;;109734;1255;50517;-69
2023/03/06 05:49:57;;;;;;;;;25.00;22.00;21.50;26.80;;;;;;109592;1259;49551;-69
2023/03/06 05:52:24;;;;;;;;;23.50;20.00;21.60;27.00;;;;;;109506;1255;47487;-69
2023/03/06 05:54:52;;;;;;;;;23.50;20.50;21.70;27.30;;;;;;109603;1255;55983;-68
2023/03/06 05:57:23;;;;;;;;;23.00;21.50;21.80;27.60;;;;;;109566;1257;53686;-69
2023/03/06 05:59:49;;;;;;;;;23.00;20.00;21.90;27.70;;;;;;109585;1257;49315;-68
2023/03/06 06:02:16;;;;;;;;;21.50;18.00;22.10;27.70;;;;;;109684;1255;49999;-67
2023/03/06 06:04:43;;;;;;;;;22.50;21.00;22.20;27.90;;;;;;109689;1257;46077;-67
2023/03/06 06:07:12;;;;;;;;;21.00;18.00;22.30;28.00;;;;;;109679;1255;56132;-68
2023/03/06 06:09:38;;;;;;;;;24.00;19.00;22.40;28.50;;;;;;109814;1261;53805;-71
2023/03/06 06:12:05;;;;;;;;;26.00;23.00;22.50;28.50;;;;;;110067;1255;49172;-71
2023/03/06 06:14:33;;;;;;;;;24.00;20.00;22.60;29.10;;;;;;109792;1260;49401;-69
2023/03/06 06:16:59;;;;;;;;;33.00;28.00;22.80;30.40;;;;;;109783;1258;45833;-69
2023/03/06 06:19:28;;;;;;;;;31.00;29.00;22.90;31.70;;;;;;109651;1255;55860;-69
2023/03/06 06:21:54;;;;;;;;;32.00;27.00;23.10;33.40;;;;;;109736;1255;54004;-69
2023/03/06 06:24:23;;;;;;;;;35.00;24.50;23.20;34.20;;;;;;109579;1260;50073;-68
2023/03/06 06:26:54;;;;;;;;;34.67;27.67;23.30;34.70;;;;;;110271;1258;49495;-69
2023/03/06 06:29:21;;;;;;;;;27.00;22.50;23.50;34.50;;;;;;109634;1255;46152;-67
2023/03/06 06:31:48;;;;;;;;;29.00;25.00;23.70;35.30;;;;;;109662;1255;56342;-69
2023/03/06 06:34:14;;;;;;;;;28.00;21.00;23.80;35.60;;;;;;109590;1255;53892;-69
2023/03/06 06:36:41;;;;;;;;;39.00;31.00;24.00;36.20;;;;;;109726;1257;49595;-68
2023/03/06 06:39:09;;;;;;;;;31.67;25.67;24.10;35.70;;;;;;109687;1260;50017;-67
2023/03/06 06:41:36;;;;;;;;;31.50;23.50;24.20;36.00;;;;;;109727;1255;45560;-69
2023/03/06 06:44:07;;;;;;;;;27.00;24.00;24.40;36.00;;;;;;109588;1255;56179;-67
2023/03/06 06:46:34;;;;;;;;;25.00;21.00;24.50;36.20;;;;;;109610;1255;53916;-68
2023/03/06 06:49:01;;;;;;;;;32.00;25.00;24.60;36.00;;;;;;109546;1258;50634;-68
2023/03/06 06:51:32;;;;;;;;;25.00;21.50;24.70;35.70;;;;;;109596;1255;50074;-68
2023/03/06 06:53:59;;;;;;;;;32.00;25.00;24.90;36.10;;;;;;109763;1259;45933;-68
2023/03/06 06:56:25;;;;;;;;;29.00;24.00;25.00;36.10;;;;;;109790;1259;55467;-68
2023/03/06 06:58:53;;;;;;;;;27.00;21.50;25.20;36.30;;;;;;109773;1260;53235;-70
2023/03/06 07:01:20;;;;;;;;;23.33;22.33;25.20;36.00;;;;;;110037;1260;49329;-73
2023/03/06 07:03:46;;;;;;;;;26.50;19.50;25.40;36.00;;;;;;109932;1260;50017;-67
2023/03/06 07:06:12;;;;;;;;;29.50;24.00;25.50;37.00;;;;;;109560;1257;144370;-72
2023/03/06 07:08:39;;;;;;;;;22.00;20.00;25.70;36.80;;;;;;109999;1257;55476;-72
2023/03/06 07:11:08;;;;;;;;;21.00;18.00;25.80;36.20;;;;;;109708;1258;54489;-66
2023/03/06 07:13:35;;;;;;;;;23.50;22.00;26.00;36.00;;;;;;110006;1260;49305;-67
2023/03/06 07:16:01;;;;;;;;;21.50;19.00;26.10;35.40;;;;;;109567;1261;49564;-67
2023/03/06 07:18:28;;;;;;;;;33.00;21.00;26.20;36.00;;;;;;109658;1260;45562;-66
2023/03/06 07:20:55;;;;;;;;;22.00;20.00;26.30;35.80;;;;;;109710;1261;56856;-66
2023/03/06 07:23:22;;;;;;;;;26.00;21.00;26.40;35.50;;;;;;109579;1260;53689;-65
2023/03/06 07:25:48;;;;;;;;;35.25;23.75;26.50;35.50;;;;;;109537;1261;49801;-65
2023/03/06 07:28:15;;;;;;;;;26.00;22.00;26.60;35.30;;;;;;109673;1254;49680;-65
2023/03/06 07:30:42;;;;;;;;;20.00;17.00;26.60;35.00;;;;;;109675;1255;45918;-65
2023/03/06 07:33:08;;;;;;;;;23.00;21.00;26.70;35.10;;;;;;109549;1260;55502;-65
2023/03/06 07:35:35;;;;;;;;;19.00;17.00;26.80;34.80;;;;;;109849;1254;54019;-63
2023/03/06 07:38:02;;;;;;;;;22.50;20.00;26.90;34.70;;;;;;109956;1259;51157;-70
2023/03/06 07:40:28;;;;;;;;;19.00;16.00;26.90;34.60;;;;;;109902;1254;50308;-67
2023/03/06 07:42:56;;;;;;;;;21.00;19.00;26.90;34.40;;;;;;109477;1259;45723;-65
2023/03/06 07:45:22;;;;;;;;;20.00;19.00;27.00;34.40;;;;;;109607;1259;56029;-65
2023/03/06 07:47:50;;;;;;;;;19.00;16.00;27.00;34.90;;;;;;109669;1256;54010;-65
2023/03/06 07:50:17;;;;;;;;;29.50;20.00;27.00;34.10;;;;;;109757;1255;49136;-65
2023/03/06 07:52:43;;;;;;;;;26.00;20.00;27.00;34.10;;;;;;109622;1255;50656;-66
2023/03/06 07:55:10;;;;;;;;;18.50;17.00;27.10;33.80;;;;;;109720;1255;45726;-66
2023/03/06 07:57:37;;;;;;;;;16.00;15.00;27.10;33.50;;;;;;109608;1259;55376;-65
2023/03/06 08:00:05;;;;;;;;;18.50;17.00;27.10;33.30;;;;;;109708;1256;54277;-70
2023/03/06 08:02:31;;;;;;;;;19.00;16.50;27.10;33.20;;;;;;109642;1261;49411;-74
2023/03/06 08:04:58;;;;;;;;;18.00;17.00;27.10;33.50;;;;;;109661;1255;49690;-64
2023/03/06 08:07:24;;;;;;;;;18.00;16.50;27.20;33.30;;;;;;109694;1257;46467;-65
2023/03/06 08:09:50;;;;;;;;;18.00;16.00;27.20;33.20;;;;;;109685;1255;56810;-65
2023/03/06 08:12:17;;;;;;;;;20.00;16.00;27.20;33.10;;;;;;109729;1255;53779;-62
2023/03/06 08:14:43;;;;;;;;;19.33;18.00;27.20;33.00;;;;;;109733;1258;50692;-67
2023/03/06 08:17:09;;;;;;;;;23.00;16.00;27.20;32.80;;;;;;109775;1255;49625;-65
2023/03/06 08:19:35;;;;;;;;;21.00;17.00;27.20;32.70;;;;;;109762;1255;45895;-65
2023/03/06 08:22:04;;;;;;;;;17.00;14.00;27.20;32.50;;;;;;109608;1259;56604;-64
2023/03/06 08:24:31;;;;;;;;;18.50;15.50;27.10;32.40;;;;;;109780;1255;53479;-62
2023/03/06 08:26:58;;;;;;;;;19.33;17.00;27.20;32.10;;;;;;109944;1260;50014;-67
2023/03/06 08:29:24;;;;;;;;;16.00;15.00;27.10;33.10;;;;;;109693;1261;49067;-67
2023/03/06 08:31:50;;;;;;;;;19.50;16.50;27.20;33.10;;;;;;109461;1259;45372;-67
2023/03/06 08:34:20;;;;;;;;;16.00;13.00;27.10;32.90;;;;;;109744;1255;55524;-66
2023/03/06 08:36:47;;;;;;;;;17.00;16.00;27.20;32.80;;;;;;109623;1255;54328;-70
2023/03/06 08:39:13;;;;;;;;;19.25;17.75;27.10;32.60;;;;;;109788;1255;49173;-70
2023/03/06 08:41:41;;;;;;;;;21.50;17.00;27.10;32.50;;;;;;110200;1260;51618;-66
2023/03/06 08:44:07;;;;;;;;;17.00;14.00;27.10;32.40;;;;;;109667;1259;47939;-65
2023/03/06 08:46:34;;;;;;;;;19.00;15.50;27.20;32.20;;;;;;109608;1260;55949;-66
2023/03/06 08:49:01;;;;;;;;;17.00;14.50;27.20;32.10;;;;;;109291;1260;56052;-66
2023/03/06 08:51:27;;;;;;;;;17.00;15.00;27.20;32.10;;;;;;109537;1255;49845;-65
2023/03/06 08:53:55;;;;;;;;;19.00;14.00;27.10;31.90;;;;;;109785;1255;49133;-65
2023/03/06 08:56:27;;;;;;;;;20.00;17.00;27.10;31.80;;;;;;109598;1255;45465;-66
2023/03/06 08:58:54;;;;;;;;;18.00;13.00;27.10;31.70;;;;;;109772;1255;55571;-63
2023/03/06 09:01:23;;;;;;;;;19.00;14.00;27.10;31.60;;;;;;109567;1255;54552;-63
2023/03/06 09:03:52;;;;;;;;;16.00;15.00;27.10;31.60;;;;;;109635;1255;49804;-66
2023/03/06 09:06:19;;;;;;;;;17.00;15.00;27.10;31.50;;;;;;109643;1259;50345;-66
2023/03/06 09:08:45;;;;;;;;;17.75;15.00;27.10;31.40;;;;;;109635;1258;46326;-66
2023/03/06 09:11:13;;;;;;;;;15.00;14.00;27.10;31.40;;;;;;109407;1255;56423;-66
2023/03/06 09:13:41;;;;;;;;;14.00;12.00;27.00;31.30;;;;;;109603;1256;53576;-66
2023/03/06 09:16:09;;;;;;;;;20.00;16.00;27.00;31.50;;;;;;109635;1255;49951;-67
2023/03/06 09:18:36;;;;;;;;;13.50;12.50;27.00;31.40;;;;;;109617;1260;49225;-66
2023/03/06 09:21:03;;;;;;;;;17.00;14.00;26.90;31.10;;;;;;109528;1255;45411;-66
2023/03/06 09:23:29;;;;;;;;;20.00;14.00;26.90;31.00;;;;;;109602;1255;55072;-66
2023/03/06 09:25:57;;;;;;;;;15.00;12.00;26.90;31.20;;;;;;109556;1256;54236;-66
2023/03/06 09:28:24;;;;;;;;;15.50;14.50;26.90;30.90;;;;;;109666;1255;50099;-67
2023/03/06 09:30:52;;;;;;;;;15.00;14.00;26.90;31.00;;;;;;109718;1255;49987;-66
2023/03/06 09:33:19;;;;;;;;;15.50;13.00;26.80;31.10;;;;;;109836;1257;45598;-68
2023/03/06 09:35:51;;;;;;;;;16.00;12.00;26.80;30.80;;;;;;109658;1255;55370;-67
2023/03/06 09:38:18;;;;;;;;;14.67;12.67;26.80;31.00;;;;;;109666;1258;54419;-66
2023/03/06 09:40:57;;;;;;;;;19.00;17.00;26.80;30.80;;;;;;109696;1260;48961;-67
2023/03/06 09:43:43;;;;;;;;;12.00;11.33;26.80;31.00;;;;;;109770;1255;49467;-68
2023/03/06 09:46:12;;;;;;;;;17.00;13.00;26.70;30.80;;;;;;109725;1259;45730;-67
2023/03/06 09:48:54;;;;;;;;;16.00;13.00;26.70;30.90;;;;;;109838;1259;55929;-69
2023/03/06 09:51:27;;;;;;;;;14.50;12.25;26.70;30.70;;;;;;109828;1256;54464;-67
2023/03/06 09:54:13;;;;;;;;;13.00;12.00;26.60;30.90;;;;;;109686;1261;49685;-66
2023/03/06 09:56:45;;;;;;;;;15.00;13.00;26.50;30.60;;;;;;109639;1257;49688;-65
2023/03/06 09:59:21;;;;;;;;;13.00;12.00;26.50;30.50;;;;;;109693;1255;46146;-65
2023/03/06 10:02:06;;;;;;;;;12.00;11.33;26.50;30.50;;;;;;109883;1254;55363;-66
2023/03/06 10:04:45;;;;;;;;;15.33;14.00;26.50;30.50;;;;;;109760;1259;53456;-63
2023/03/06 10:07:20;;;;;;;;;14.00;13.00;26.50;30.50;;;;;;109602;1261;49065;-63
2023/03/06 10:09:55;;;;;;;;;18.00;12.00;26.40;30.40;;;;;;109729;1259;50166;-63
2023/03/06 10:12:40;;;;;;;;;14.00;11.00;26.40;30.40;;;;;;109485;1258;45453;-63
2023/03/06 10:15:17;;;;;;;;;14.00;11.00;26.40;30.70;;;;;;109570;1261;56316;-65
2023/03/06 10:17:43;;;;;;;;;12.33;10.00;26.30;30.40;;;;;;109630;1259;54527;-64
2023/03/06 10:20:24;;;;;;;;;13.00;11.50;26.30;30.40;;;;;;109555;1257;49235;-64
2023/03/06 10:22:59;;;;;;;;;;;26.30;30.50;;;;;;109611;1260;49609;-63
2023/03/06 10:25:28;;;;;;;;;12.00;11.00;26.20;30.40;;;;;;109701;1255;47125;-63
2023/03/06 10:28:13;;;;;;;;;13.00;11.00;26.20;30.40;;;;;;109682;1255;56383;-64
2023/03/06 10:30:48;;;;;;;;;16.33;13.00;26.10;30.60;;;;;;109745;1259;55260;-64
2023/03/06 10:33:49;;;;;;;;;13.00;11.50;26.10;30.50;;;;;;109572;1255;49019;-64
2023/03/06 10:36:17;;;;;;;;;14.00;12.00;26.00;30.50;;;;;;109483;1260;49907;-64
2023/03/06 10:38:47;;;;;;;;;12.00;11.00;26.00;30.60;;;;;;109713;1261;45654;-64
2023/03/06 10:41:13;;;;;;;;;16.00;14.00;26.00;30.40;;;;;;109699;1260;56475;-64
2023/03/06 10:43:59;;;;;;;;;12.00;10.00;26.00;30.40;;;;;;109689;1255;53934;-64
2023/03/06 10:46:30;;;;;;;;;16.50;12.00;25.90;30.60;;;;;;109531;1255;49319;-63
2023/03/06 10:48:58;;;;;;;;;12.50;11.50;26.00;30.50;;;;;;109808;1260;49900;-65
2023/03/06 10:51:26;;;;;;;;;16.00;14.00;26.00;30.50;;;;;;109593;1260;45494;-65
2023/03/06 10:53:59;;;;;;;;;14.00;13.00;26.10;30.20;;;;;;109693;1259;55504;-65
2023/03/06 10:56:36;;;;;;;;;11.00;10.00;26.10;30.70;;;;;;109620;1260;54237;-64
2023/03/06 10:59:09;;;;;;;;;13.50;12.50;26.20;30.50;;;;;;109673;1259;48970;-64
2023/03/06 11:01:37;;;;;;;;;12.00;11.00;26.30;30.60;;;;;;109718;1259;49119;-65
2023/03/06 11:04:24;;;;;;;;;13.00;10.50;26.40;31.10;;;;;;109713;1259;45434;-66
2023/03/06 11:07:05;;;;;;;;;10.00;9.00;26.50;30.60;;;;;;109759;1258;55414;-65
2023/03/06 11:09:32;;;;;;;;;13.50;11.50;26.50;30.40;;;;;;109698;1255;55019;-66
2023/03/06 11:12:20;;;;;;;;;13.00;10.00;26.60;30.40;;;;;;109545;1255;49833;-64
2023/03/06 11:14:46;;;;;;;;;12.00;11.00;26.70;30.50;;;;;;109590;1255;49574;-64
2023/03/06 11:17:27;;;;;;;;;13.50;10.50;26.80;30.40;;;;;;109747;1255;45895;-63
2023/03/06 11:20:20;;;;;;;;;13.00;12.00;26.90;30.40;;;;;;109626;1255;56336;-65
2023/03/06 11:22:56;;;;;;;;;11.00;10.00;27.00;30.40;;;;;;109534;1255;54111;-64
2023/03/06 11:25:31;;;;;;;;;12.00;10.00;27.10;30.40;;;;;;109565;1255;50123;-64
2023/03/06 11:28:25;;;;;;;;;11.00;10.00;27.20;30.40;;;;;;109688;1259;49312;-64
2023/03/06 11:31:21;;;;;;;;;12.00;10.00;27.40;30.60;;;;;;109519;1258;45876;-63
2023/03/06 11:34:04;;;;;;;;;10.00;9.00;27.50;30.40;;;;;;109526;1255;55790;-63
2023/03/06 11:36:53;;;;;;;;;11.00;10.00;27.60;30.50;;;;;;109552;1257;53799;-62
2023/03/06 11:39:36;;;;;;;;;11.00;9.00;27.80;30.50;;;;;;109518;1255;49136;-64
2023/03/06 11:42:12;;;;;;;;;12.33;11.33;27.90;30.30;;;;;;109553;1259;49277;-65
2023/03/06 11:45:22;;;;;;;;;10.00;9.00;27.90;29.90;;;;;;109559;1258;48799;-63
2023/03/06 11:48:08;;;;;;;;;12.00;11.00;28.00;30.20;;;;;;109578;1255;56586;-64
2023/03/06 11:50:45;;;;;;;;;12.00;9.67;28.10;30.20;;;;;;109613;1259;55814;-64
2023/03/06 11:53:17;;;;;;;;;10.50;9.50;28.10;30.10;;;;;;110019;1255;49878;-64
2023/03/06 11:56:06;;;;;;;;;12.00;10.00;28.20;30.20;;;;;;109753;1260;49205;-64
2023/03/06 11:58:39;;;;;;;;;12.00;11.00;28.30;30.20;;;;;;109671;1260;46135;-64
2023/03/06 12:01:15;;;;;;;;;12.00;11.00;28.40;30.20;;;;;;109528;1255;55553;-63
2023/03/06 12:04:00;;;;;;;;;12.00;11.00;28.40;30.00;;;;;;109582;1257;53523;-65
2023/03/06 12:06:47;;;;;;;;;10.50;9.50;28.40;30.00;;;;;;109661;1260;49970;-64
2023/03/06 12:09:13;;;;;;;;;12.50;9.25;28.50;30.00;;;;;;109599;1259;49337;-64
2023/03/06 12:11:50;;;;;;;;;11.00;10.00;28.50;29.90;;;;;;109537;1259;45750;-64
2023/03/06 12:14:42;;;;;;;;;11.00;10.00;28.50;29.90;;;;;;109648;1259;57610;-65
2023/03/06 12:17:12;;;;;;;;;;;28.50;29.80;;;;;;109630;1260;54007;-67
2023/03/06 12:19:57;;;;;;;;;9.00;8.00;28.60;29.90;;;;;;109638;1255;50035;-66
2023/03/06 12:22:32;;;;;;;;;12.00;11.00;28.60;29.70;;;;;;109599;1257;50448;-64
2023/03/06 12:25:26;;;;;;;;;12.00;11.00;28.70;29.90;;;;;;109661;1255;46445;-64
2023/03/06 12:28:12;;;;;;;;;11.67;10.67;28.70;29.60;;;;;;109582;1257;56040;-63
2023/03/06 12:31:01;;;;;;;;;11.00;10.00;28.70;29.70;;;;;;109762;1258;53350;-65
2023/03/06 12:33:39;;;;;;;;;10.00;9.00;28.70;29.70;;;;;;109581;1260;49867;-64